Herculaneum, MO

9:49 PM CDT on May 29, 2017 (GMT -0500)
Joachim Golf Club | | Change Station
Active Advisory: Flood Warning

Elev 387 ft 38.26 °N, 90.39 °W | Updated 39 seconds ago

Clear
Clear
62.8 °F
Feels Like 62.8 °F
N
0.0
Wind Variable Wind from NE

Today
High -- | Low -- °F
--% Chance of Precip.
Yesterday
High -- | Low -- °F
Precip. -- in
Pressure 29.94 in
Visibility 10.0 miles
Clouds Clear
Dew Point 57 °F
Humidity 82%
Rainfall 0.00 in
Snow Depth Not available.
5:41 AM 8:17 PM
Waxing Crescent, 25% visible
METAR KCPS 300153Z 20004KT 10SM CLR 20/18 A2995 RMK AO2 SLP138 T02000183 $
Pressure 29.94 in
Visibility 10.0 miles
Clouds Clear
Dew Point 57 °F
Humidity 82%
Rainfall 0.00 in
Snow Depth Not available.
5:41 AM 8:17 PM
Waxing Crescent, 25% visible
METAR KCPS 300153Z 20004KT 10SM CLR 20/18 A2995 RMK AO2 SLP138 T02000183 $

Get Your Daily Forecast Email!

Thanks for signing up!

Be on the lookout for a verification email in your inbox.

You'll start receiving severe weather alerts in your inbox..

×

10-Day Weather Forecast

Almanac

Astronomy

May. 29, 2017 Rise Set
Actual Time
Civil Twilight
Nautical Twilight
Astronomical Twilight
Moon
Length of Visible Light
Length of Day
Tomorrow will be .
, % of the Moon is Illuminated

Today's Extremes

State Highs State Lows

Community

WunderPhotos

Category 6

Welcome to Category 6. This is the collective home for Weather Underground's featured writeups by Dr. Jeff Masters (right), Bob Henson (left), Chris Burt, and other regular contributors.

Nearby

Air Quality

  Air Quality AQ Index Pollutant
Not available.

Snow Depth

Station Depth Elevation

Earthquake Activity

City Distance Mag. Time & Date
Minimum magnitude displayed is 2.5.

Coastal Water Temperatures

Place Temperature

Stations

Nearby Weather Stations

Station Location Temp. Windchill Dew Point Humidity Wind Precip. Elev Updated Type
                   

Watches & Warnings

Flood Warning
Issued: 8:16 PM CDT May. 29, 2017 – National Weather Service

The Flood Warning continues for
the Meramec river near Arnold
* until further notice.
* At 8:00 PM Monday the stage was 26.6 feet.
* Flood stage is 24.0 feet.
* Minor flooding is forecast.
* The river is forecast to continue falling to a stage of 26.2 feet
by Wednesday morning.
* Impact: at 26.0 feet... house at the end of kasebaum Lane is
surrounded by water just west of Lemay Ferry Road bridge. Also,
Hawkins Road south of Meramec bottom Road is closed near this
height.
* Impact: at 25.1 feet... St. Louis County closes the following roads
at this height: Butler Hill west of summerhedge place, Meramec
bottom Road between Hageman Road and Highway 21, Hawkins Road south
of Meramec bottom Road, and old Telegraph Road at Earl widman
County park.


                   Fld latest 7 a.M. Forecast
location stg obs stg 05/30 05/31 06/01 06/02 06/03

Meramec river
Arnold 24.0 26.62 26.6 26.2 25.7 25.5 25.4




Lat... Lon 3851 9043 3851 9039 3845 9032 3841 9034
     3845 9043